Time;durP1;ratioP1;P1;durP2;ratioP2;P2;SDS_P1;SDS_P2;PMS_P1;PMS_P2;Temp;Humidity;BMP_temperature;BMP_pressure;BME280_temperature;BME280_humidity;BME280_pressure;Samples;Min_cycle;Max_cycle;Signal;HPM_P1;HPM_P2
2022/03/04 00:02:06;;;;;;;38.92;14.70;;;0.60;99.90;;;;;;5117472;27;20051;-68
2022/03/04 00:04:37;;;;;;;37.05;15.13;;;0.60;99.90;;;;;;5113228;27;20065;-68
2022/03/04 00:07:03;;;;;;;42.08;14.68;;;0.50;99.90;;;;;;5116336;27;20547;-69
2022/03/04 00:09:29;;;;;;;38.47;13.80;;;0.40;99.90;;;;;;5117093;27;20409;-68
2022/03/04 00:11:54;;;;;;;39.47;13.95;;;0.30;99.90;;;;;;5117437;27;20039;-69
2022/03/04 00:14:20;;;;;;;35.92;13.85;;;0.30;99.90;;;;;;5117356;27;20043;-68
2022/03/04 00:16:46;;;;;;;38.53;13.88;;;0.30;99.90;;;;;;5116707;27;20039;-69
2022/03/04 00:19:11;;;;;;;41.28;14.65;;;0.30;99.90;;;;;;5116468;27;20070;-69
2022/03/04 00:25:19;;;;;;;35.30;13.23;;;0.20;99.90;;;;;;5135838;27;20107;-70
2022/03/04 00:27:45;;;;;;;41.05;14.07;;;0.20;99.90;;;;;;5116583;27;20050;-70
2022/03/04 00:30:12;;;;;;;36.65;13.52;;;0.10;99.90;;;;;;5116832;27;20477;-69
2022/03/04 00:32:37;;;;;;;37.47;13.73;;;0.00;99.90;;;;;;5116559;27;20158;-69
2022/03/04 00:35:04;;;;;;;39.33;14.70;;;0.00;99.90;;;;;;5134397;27;20108;-69
2022/03/04 00:37:30;;;;;;;37.30;14.13;;;0.00;99.90;;;;;;5115754;27;20066;-70
2022/03/04 00:39:55;;;;;;;39.08;14.63;;;-0.10;99.90;;;;;;5115010;27;20047;-69
2022/03/04 00:42:21;;;;;;;40.83;13.70;;;-0.10;99.90;;;;;;5116834;27;20047;-70
2022/03/04 00:44:46;;;;;;;35.35;13.48;;;-0.20;99.90;;;;;;5115968;27;20046;-70
2022/03/04 00:47:12;;;;;;;36.40;13.23;;;-0.20;99.90;;;;;;5117001;27;20498;-69
2022/03/04 00:53:18;;;;;;;34.63;12.73;;;-0.20;99.90;;;;;;5135404;27;20598;-69
2022/03/04 00:55:44;;;;;;;33.78;14.05;;;-0.20;99.90;;;;;;5117139;27;20031;-70
2022/03/04 00:58:10;;;;;;;39.25;14.18;;;-0.30;99.90;;;;;;5116816;27;20035;-69
2022/03/04 01:00:36;;;;;;;32.58;12.80;;;-0.30;99.90;;;;;;5116772;27;20076;-70
2022/03/04 01:03:03;;;;;;;36.92;13.25;;;-0.30;99.90;;;;;;5116716;27;20039;-69
2022/03/04 01:05:30;;;;;;;40.17;14.48;;;-0.30;99.90;;;;;;5117042;27;20054;-69
2022/03/04 01:07:55;;;;;;;32.63;13.07;;;-0.30;99.90;;;;;;5116622;27;20076;-70
2022/03/04 01:10:21;;;;;;;32.50;12.18;;;-0.30;99.90;;;;;;5116763;27;20424;-69
2022/03/04 01:12:47;;;;;;;33.25;12.68;;;-0.30;99.90;;;;;;5115911;27;20039;-69
2022/03/04 01:15:13;;;;;;;31.88;12.32;;;-0.40;99.90;;;;;;5116395;27;20039;-69
2022/03/04 01:17:39;;;;;;;29.73;11.75;;;-0.40;99.90;;;;;;5116354;27;20401;-69
2022/03/04 01:20:06;;;;;;;32.35;12.23;;;-0.40;99.90;;;;;;5116467;27;20122;-69
2022/03/04 01:22:32;;;;;;;30.75;12.05;;;-0.40;99.90;;;;;;5116254;27;20113;-68
2022/03/04 01:24:57;;;;;;;30.70;12.20;;;-0.40;99.90;;;;;;5116234;27;20082;-69
2022/03/04 01:27:23;;;;;;;30.90;11.52;;;-0.40;99.90;;;;;;5116140;27;20035;-69
2022/03/04 01:29:49;;;;;;;28.27;11.55;;;-0.50;99.90;;;;;;5115911;27;20049;-69
2022/03/04 01:32:15;;;;;;;36.97;11.55;;;-0.50;99.90;;;;;;5115495;27;20035;-69
2022/03/04 01:34:41;;;;;;;30.10;11.45;;;-0.50;99.90;;;;;;5114830;27;20043;-70
2022/03/04 01:37:07;;;;;;;34.05;11.70;;;-0.60;99.90;;;;;;5115244;27;20039;-69
2022/03/04 01:40:03;;;;;;;29.73;11.82;;;-0.60;99.90;;;;;;5115180;27;20046;-69
2022/03/04 01:42:28;;;;;;;29.02;11.15;;;-0.70;99.90;;;;;;5115660;27;20078;-70
2022/03/04 01:44:54;;;;;;;28.50;11.88;;;-0.80;99.90;;;;;;5114888;27;20074;-70
2022/03/04 01:47:20;;;;;;;31.92;11.43;;;-0.80;99.90;;;;;;5114942;27;20043;-69
2022/03/04 01:49:45;;;;;;;34.42;11.93;;;-0.80;99.90;;;;;;5114746;27;20038;-69
2022/03/04 01:52:11;;;;;;;31.80;11.07;;;-0.70;99.90;;;;;;5097545;28;20031;-69
2022/03/04 01:54:37;;;;;;;30.65;12.32;;;-0.80;99.90;;;;;;5115100;27;20039;-70
2022/03/04 01:57:02;;;;;;;34.13;12.10;;;-0.80;99.90;;;;;;5105579;28;20047;-69
2022/03/04 01:59:28;;;;;;;33.92;12.40;;;-0.90;99.90;;;;;;5095402;28;20505;-70
2022/03/04 02:01:54;;;;;;;32.03;11.82;;;-0.90;99.90;;;;;;5094691;28;20035;-70
2022/03/04 02:04:25;;;;;;;30.88;12.25;;;-0.90;99.90;;;;;;5113422;28;20036;-70
2022/03/04 02:06:51;;;;;;;32.35;12.38;;;-1.00;99.90;;;;;;5095567;28;20038;-70
2022/03/04 02:09:17;;;;;;;32.92;12.75;;;-1.00;99.90;;;;;;5095033;28;20036;-70
2022/03/04 02:11:44;;;;;;;31.92;12.57;;;-1.00;99.90;;;;;;5103789;28;20481;-71
2022/03/04 02:14:11;;;;;;;35.80;12.68;;;-1.10;99.90;;;;;;5122104;28;20042;-70
2022/03/04 02:16:49;;;;;;;35.42;13.20;;;-1.10;99.90;;;;;;5115510;28;20544;-71
2022/03/04 02:19:16;;;;;;;30.65;12.15;;;-1.10;99.90;;;;;;5098643;28;20060;-70
2022/03/04 02:21:52;;;;;;;34.63;12.45;;;-1.20;99.90;;;;;;5115128;28;20039;-70
2022/03/04 02:24:22;;;;;;;32.22;11.90;;;-1.20;99.90;;;;;;5115443;28;20061;-70
2022/03/04 02:26:48;;;;;;;34.28;12.82;;;-1.20;99.90;;;;;;5115219;28;20219;-69
2022/03/04 02:29:14;;;;;;;30.90;12.93;;;-1.10;99.90;;;;;;5115056;28;20050;-70
2022/03/04 02:31:39;;;;;;;30.98;12.55;;;-1.20;99.90;;;;;;5114838;28;20035;-69
2022/03/04 02:34:05;;;;;;;33.47;12.68;;;-1.20;99.90;;;;;;5113949;28;20043;-70
2022/03/04 02:36:32;;;;;;;32.78;12.68;;;-1.20;99.90;;;;;;5114616;28;20035;-70
2022/03/04 02:38:57;;;;;;;33.50;11.10;;;-1.10;99.90;;;;;;5114051;28;20027;-69
2022/03/04 02:41:23;;;;;;;34.67;12.25;;;-1.10;99.90;;;;;;5114073;28;20130;-72
2022/03/04 02:43:48;;;;;;;33.30;11.77;;;-1.10;99.90;;;;;;5113240;28;20059;-71
2022/03/04 02:46:14;;;;;;;40.13;12.73;;;-1.00;99.90;;;;;;5113453;28;20088;-70
2022/03/04 02:48:40;;;;;;;34.75;12.93;;;-1.10;99.90;;;;;;5118714;27;20039;-71
2022/03/04 02:51:06;;;;;;;37.80;14.45;;;-1.10;99.90;;;;;;5114302;28;20039;-71
2022/03/04 02:53:32;;;;;;;38.15;14.15;;;-1.00;99.90;;;;;;5113728;28;20077;-74
2022/03/04 02:55:57;;;;;;;33.13;12.35;;;-1.00;99.90;;;;;;5112788;28;20164;-70
2022/03/04 02:58:23;;;;;;;36.35;13.65;;;-1.10;99.90;;;;;;5113303;28;20044;-71
2022/03/04 03:00:49;;;;;;;37.45;12.63;;;-1.00;99.90;;;;;;5108586;28;20028;-72
2022/03/04 03:03:15;;;;;;;37.80;13.73;;;-1.10;99.90;;;;;;5108799;27;20396;-70
2022/03/04 03:05:40;;;;;;;35.38;13.23;;;-1.10;99.90;;;;;;5117276;27;20122;-71
2022/03/04 03:08:06;;;;;;;38.00;14.05;;;-1.10;99.90;;;;;;5100888;27;20069;-70
2022/03/04 03:10:32;;;;;;;36.45;13.77;;;-1.20;99.90;;;;;;5116086;27;20075;-70
2022/03/04 03:12:58;;;;;;;35.42;12.13;;;-1.20;99.90;;;;;;5114489;27;20043;-70
2022/03/04 03:15:24;;;;;;;39.88;14.27;;;-1.20;99.90;;;;;;5116545;27;20041;-70
2022/03/04 03:17:49;;;;;;;36.13;13.55;;;-1.20;99.90;;;;;;5114692;27;20031;-71
2022/03/04 03:20:15;;;;;;;35.95;13.30;;;-1.10;99.90;;;;;;5116282;27;20067;-72
2022/03/04 03:22:41;;;;;;;34.42;13.57;;;-1.20;99.90;;;;;;5115211;27;20461;-70
2022/03/04 03:25:07;;;;;;;33.13;13.20;;;-1.20;99.90;;;;;;5109342;27;20038;-71
2022/03/04 03:27:32;;;;;;;44.00;13.60;;;-1.20;99.90;;;;;;5115803;27;20116;-71
2022/03/04 03:29:58;;;;;;;35.50;13.60;;;-1.10;99.90;;;;;;5108855;27;20047;-69
2022/03/04 03:32:23;;;;;;;41.22;14.68;;;-1.20;99.90;;;;;;5116410;27;20043;-73
2022/03/04 03:34:49;;;;;;;37.08;13.77;;;-1.10;99.90;;;;;;5115065;27;20079;-72
2022/03/04 03:37:15;;;;;;;39.88;14.05;;;-1.20;99.90;;;;;;5115915;27;20106;-71
2022/03/04 03:39:41;;;;;;;43.85;15.23;;;-1.20;99.90;;;;;;5115538;27;20500;-72
2022/03/04 03:42:07;;;;;;;35.38;13.85;;;-1.20;99.90;;;;;;5115951;27;20071;-70
2022/03/04 03:44:33;;;;;;;41.97;14.13;;;-1.20;99.90;;;;;;5116327;27;20121;-69
2022/03/04 03:46:58;;;;;;;37.63;13.30;;;-1.20;99.90;;;;;;5112222;28;20173;-72
2022/03/04 03:49:24;;;;;;;40.63;14.25;;;-1.20;99.90;;;;;;5104706;27;20051;-71
2022/03/04 03:51:50;;;;;;;42.38;15.40;;;-1.30;99.90;;;;;;5115880;27;20031;-70
2022/03/04 03:54:15;;;;;;;46.33;14.75;;;-1.30;99.90;;;;;;5113974;27;20115;-73
2022/03/04 03:56:41;;;;;;;39.72;14.75;;;-1.30;99.90;;;;;;5115897;27;20069;-70
2022/03/04 03:59:11;;;;;;;39.50;14.48;;;-1.30;99.90;;;;;;5109455;27;20039;-70
2022/03/04 04:01:38;;;;;;;39.72;14.63;;;-1.30;99.90;;;;;;5115918;27;20043;-71
2022/03/04 04:04:04;;;;;;;44.25;15.43;;;-1.30;99.90;;;;;;5134474;27;20042;-71
2022/03/04 04:06:29;;;;;;;46.00;15.35;;;-1.40;99.90;;;;;;5116429;27;20046;-70
2022/03/04 04:08:55;;;;;;;42.35;15.43;;;-1.40;99.90;;;;;;5115963;27;20443;-71
2022/03/04 04:11:20;;;;;;;44.70;15.10;;;-1.40;99.90;;;;;;5115694;27;20066;-71
2022/03/04 04:13:46;;;;;;;45.35;15.60;;;-1.40;99.90;;;;;;5113275;27;20045;-71
2022/03/04 04:16:14;;;;;;;43.33;15.38;;;-1.40;99.90;;;;;;5115296;27;20031;-70
2022/03/04 04:18:40;;;;;;;48.10;16.83;;;-1.50;99.90;;;;;;5115677;27;20043;-70
2022/03/04 04:21:06;;;;;;;48.42;17.80;;;-1.50;99.90;;;;;;5116249;27;20076;-70
2022/03/04 04:23:32;;;;;;;49.90;16.90;;;-1.60;99.90;;;;;;5117044;27;20039;-71
2022/03/04 04:25:58;;;;;;;46.45;16.50;;;-1.50;99.90;;;;;;5115008;27;20489;-74
2022/03/04 04:28:25;;;;;;;46.67;16.48;;;-1.50;99.90;;;;;;5111241;27;20035;-70
2022/03/04 04:30:51;;;;;;;48.25;15.65;;;-1.60;99.90;;;;;;5116336;27;20371;-71
2022/03/04 04:33:17;;;;;;;47.25;16.15;;;-1.60;99.90;;;;;;5114720;27;20065;-70
2022/03/04 04:35:42;;;;;;;51.63;17.10;;;-1.70;99.90;;;;;;5095774;28;20043;-71
2022/03/04 04:38:08;;;;;;;47.40;16.63;;;-1.60;99.90;;;;;;5113071;27;20497;-70
2022/03/04 04:40:34;;;;;;;52.13;17.73;;;-1.70;99.90;;;;;;5115685;27;20039;-70
2022/03/04 04:42:59;;;;;;;50.60;17.00;;;-1.70;99.90;;;;;;5116109;27;20101;-71
2022/03/04 04:45:25;;;;;;;47.97;16.25;;;-1.80;99.90;;;;;;5115921;27;20035;-72
2022/03/04 04:47:50;;;;;;;50.33;17.77;;;-1.80;99.90;;;;;;5115256;27;20122;-71
2022/03/04 04:50:16;;;;;;;48.22;16.02;;;-1.80;99.90;;;;;;5113532;27;20054;-71
2022/03/04 04:52:41;;;;;;;55.05;17.17;;;-1.80;99.90;;;;;;5114184;27;20039;-71
2022/03/04 04:55:07;;;;;;;56.00;18.23;;;-1.80;99.90;;;;;;5114175;27;20035;-71
2022/03/04 04:57:33;;;;;;;61.85;19.85;;;-1.90;99.90;;;;;;5112964;27;20134;-71
2022/03/04 04:59:58;;;;;;;54.10;17.85;;;-1.90;99.90;;;;;;5106446;27;20114;-72
2022/03/04 05:02:24;;;;;;;53.03;18.73;;;-2.00;99.90;;;;;;5096179;27;20122;-72
2022/03/04 05:04:49;;;;;;;52.75;17.65;;;-2.00;99.90;;;;;;5112615;27;20498;-72
2022/03/04 05:07:15;;;;;;;53.50;18.95;;;-2.00;99.90;;;;;;5112659;27;20369;-73
2022/03/04 05:09:40;;;;;;;59.17;19.30;;;-2.10;99.90;;;;;;5113190;27;20031;-73
2022/03/04 05:12:07;;;;;;;54.17;18.25;;;-2.10;99.90;;;;;;5111430;27;20062;-72
2022/03/04 05:14:32;;;;;;;58.47;18.88;;;-2.10;99.90;;;;;;5113990;27;20070;-73
2022/03/04 05:16:58;;;;;;;57.20;18.42;;;-2.20;99.90;;;;;;5105174;28;20513;-72
2022/03/04 05:19:23;;;;;;;59.20;19.38;;;-2.20;99.90;;;;;;5106193;27;20099;-73
2022/03/04 05:21:49;;;;;;;57.75;20.23;;;-2.20;99.90;;;;;;5113193;27;20043;-73
2022/03/04 05:24:14;;;;;;;64.38;19.58;;;-2.20;99.90;;;;;;5113105;27;20047;-73
2022/03/04 05:26:41;;;;;;;61.25;18.55;;;-2.30;99.90;;;;;;5112308;28;20499;-74
2022/03/04 05:29:10;;;;;;;58.75;18.58;;;-2.30;99.90;;;;;;5112611;27;20054;-74
2022/03/04 05:31:41;;;;;;;60.03;18.98;;;-2.30;99.90;;;;;;5111978;27;20046;-75
2022/03/04 05:34:07;;;;;;;59.03;19.77;;;-2.30;99.90;;;;;;5105551;27;20039;-73
2022/03/04 05:36:34;;;;;;;64.30;19.10;;;-2.20;99.90;;;;;;5113269;27;20039;-74
2022/03/04 05:38:59;;;;;;;62.35;18.90;;;-2.20;99.90;;;;;;5111559;27;20054;-75
2022/03/04 05:41:25;;;;;;;61.35;18.25;;;-2.10;99.90;;;;;;5113794;27;20035;-74
2022/03/04 05:43:51;;;;;;;59.22;17.58;;;-2.00;99.90;;;;;;5113242;27;20035;-73
2022/03/04 05:46:17;;;;;;;64.50;20.17;;;-1.90;99.90;;;;;;5103213;28;20031;-76
2022/03/04 05:48:43;;;;;;;63.17;18.92;;;-1.90;99.90;;;;;;5110637;27;20442;-74
2022/03/04 05:51:09;;;;;;;59.90;20.98;;;-1.80;99.90;;;;;;5111764;28;20039;-74
2022/03/04 05:53:35;;;;;;;64.25;19.30;;;-1.70;99.90;;;;;;5112838;27;20122;-73
2022/03/04 05:56:05;;;;;;;67.65;19.77;;;-1.60;99.90;;;;;;5113530;27;20470;-73
2022/03/04 05:58:31;;;;;;;57.05;18.80;;;-1.70;99.90;;;;;;5112661;28;20054;-74
2022/03/04 06:00:57;;;;;;;60.92;19.30;;;-1.60;99.90;;;;;;5112449;28;20035;-75
2022/03/04 06:03:22;;;;;;;58.67;18.20;;;-1.50;99.90;;;;;;5131456;28;20039;-74
2022/03/04 06:05:48;;;;;;;55.00;17.85;;;-1.50;99.90;;;;;;5112941;28;20043;-73
2022/03/04 06:08:14;;;;;;;55.55;17.45;;;-1.40;99.90;;;;;;5112597;28;20042;-74
2022/03/04 06:10:40;;;;;;;67.50;21.35;;;-1.30;99.90;;;;;;5111300;28;20061;-76
2022/03/04 06:13:06;;;;;;;58.60;19.95;;;-1.30;99.90;;;;;;5112122;28;20100;-74
2022/03/04 06:15:31;;;;;;;64.00;18.90;;;-1.30;99.90;;;;;;5112629;28;20036;-76
2022/03/04 06:17:57;;;;;;;61.20;19.17;;;-1.30;99.90;;;;;;5111679;28;20453;-74
2022/03/04 06:20:22;;;;;;;67.85;20.73;;;-1.20;99.90;;;;;;5108302;28;20036;-75
2022/03/04 06:22:49;;;;;;;65.15;20.40;;;-1.20;99.90;;;;;;5112638;28;20134;-74
2022/03/04 06:25:15;;;;;;;63.60;20.17;;;-1.20;99.90;;;;;;5113260;28;20031;-73
2022/03/04 06:28:01;;;;;;;65.57;20.10;;;-1.10;99.90;;;;;;5112832;28;20088;-74
2022/03/04 06:30:29;;;;;;;68.10;20.23;;;-1.10;99.90;;;;;;5112367;28;20042;-74
2022/03/04 06:33:30;;;;;;;69.88;20.92;;;-1.10;99.90;;;;;;5110730;28;20136;-75
2022/03/04 06:35:42;;;;;;;71.85;20.38;;;-1.10;99.90;;;;;;5092154;28;20130;-73
2022/03/04 06:38:07;;;;;;;63.10;19.73;;;-1.10;99.90;;;;;;5112578;27;20031;-75
2022/03/04 06:40:33;;;;;;;70.93;21.30;;;-1.00;99.90;;;;;;5115482;27;20429;-73
2022/03/04 06:42:59;;;;;;;79.85;23.05;;;-1.00;99.90;;;;;;5115726;27;20061;-75
2022/03/04 06:45:24;;;;;;;75.38;21.35;;;-1.00;99.90;;;;;;5115979;27;20043;-76
2022/03/04 06:47:50;;;;;;;75.47;23.00;;;-0.90;99.90;;;;;;5098885;27;20043;-75
2022/03/04 06:50:15;;;;;;;80.45;21.20;;;-0.90;99.90;;;;;;5115590;27;20047;-74
2022/03/04 06:52:43;;;;;;;83.45;23.85;;;-0.80;99.90;;;;;;5115866;27;20057;-74
2022/03/04 06:55:09;;;;;;;71.95;21.23;;;-0.80;99.90;;;;;;5109357;27;20039;-74
2022/03/04 06:57:35;;;;;;;83.43;25.55;;;-0.80;99.90;;;;;;5112893;28;20040;-71
2022/03/04 07:00:06;;;;;;;77.03;23.08;;;-0.80;99.90;;;;;;5109857;27;20035;-71
2022/03/04 07:02:33;;;;;;;77.68;23.27;;;-0.80;99.90;;;;;;5115424;27;20070;-71
2022/03/04 07:05:01;;;;;;;76.82;23.23;;;-0.60;99.90;;;;;;5115289;27;20046;-70
2022/03/04 07:07:27;;;;;;;88.45;24.70;;;-0.70;99.90;;;;;;5115951;27;20043;-70
2022/03/04 07:09:53;;;;;;;82.22;24.35;;;-0.70;99.90;;;;;;5114953;27;20552;-71
2022/03/04 07:12:18;;;;;;;91.13;26.17;;;-0.60;99.90;;;;;;5102422;27;20127;-71
2022/03/04 07:14:43;;;;;;;78.22;23.42;;;-0.50;99.90;;;;;;5115325;27;20384;-71
2022/03/04 07:17:09;;;;;;;93.07;25.40;;;-0.50;99.90;;;;;;5113927;27;20122;-72
2022/03/04 07:19:34;;;;;;;81.78;23.33;;;-0.50;99.90;;;;;;5114947;27;20503;-72
2022/03/04 07:22:00;;;;;;;86.32;24.35;;;-0.40;99.90;;;;;;5116083;27;20058;-71
2022/03/04 07:24:25;;;;;;;93.13;25.58;;;-0.30;99.90;;;;;;5118157;27;20038;-71
2022/03/04 07:26:51;;;;;;;87.25;26.35;;;-0.30;99.90;;;;;;5112295;27;20043;-71
2022/03/04 07:29:16;;;;;;;86.43;25.92;;;-0.30;99.90;;;;;;5113586;27;20074;-71
2022/03/04 07:31:42;;;;;;;94.20;26.25;;;-0.30;99.90;;;;;;5112926;27;20043;-71
2022/03/04 07:34:08;;;;;;;88.05;26.35;;;-0.30;99.90;;;;;;5113632;27;20039;-72
2022/03/04 07:36:33;;;;;;;90.95;25.10;;;-0.20;99.90;;;;;;5112831;27;20035;-70
2022/03/04 07:38:59;;;;;;;92.13;24.83;;;-0.20;99.90;;;;;;5112769;27;20037;-71
2022/03/04 07:41:25;;;;;;;98.93;27.02;;;-0.10;99.90;;;;;;5113366;27;20100;-70
2022/03/04 07:43:50;;;;;;;98.03;28.45;;;-0.10;99.90;;;;;;5112824;27;20084;-71
2022/03/04 07:46:17;;;;;;;100.93;27.77;;;-0.10;99.90;;;;;;5112426;27;20046;-72
2022/03/04 07:48:43;;;;;;;109.15;29.55;;;-0.10;99.90;;;;;;5097112;27;20031;-71
2022/03/04 07:51:09;;;;;;;100.72;26.45;;;0.00;99.90;;;;;;5111837;27;20046;-71
2022/03/04 07:53:34;;;;;;;97.47;26.83;;;-0.10;99.90;;;;;;5111808;27;20089;-71
2022/03/04 07:56:00;;;;;;;90.88;26.20;;;0.00;99.90;;;;;;5112892;27;20031;-72
2022/03/04 07:58:25;;;;;;;101.32;26.30;;;-0.10;99.90;;;;;;5113306;27;20534;-72
2022/03/04 08:00:51;;;;;;;90.47;26.17;;;0.00;99.90;;;;;;5112303;27;20031;-72
2022/03/04 08:03:16;;;;;;;94.90;24.10;;;0.00;99.90;;;;;;5111725;27;20084;-71
2022/03/04 08:05:42;;;;;;;95.57;25.65;;;-0.10;99.90;;;;;;5113214;27;20096;-72
2022/03/04 08:08:07;;;;;;;102.72;26.73;;;0.00;99.90;;;;;;5113381;27;20281;-72
2022/03/04 08:10:33;;;;;;;104.13;27.27;;;0.00;99.90;;;;;;5111788;27;20038;-72
2022/03/04 08:12:58;;;;;;;96.95;26.90;;;0.10;99.90;;;;;;5105802;27;20031;-71
2022/03/04 08:15:24;;;;;;;88.10;24.77;;;0.00;99.90;;;;;;5111420;27;20039;-72
2022/03/04 08:17:50;;;;;;;96.95;26.70;;;0.10;99.90;;;;;;5109764;27;20060;-71
2022/03/04 08:20:15;;;;;;;99.82;26.30;;;0.00;99.90;;;;;;5107785;27;20118;-73
2022/03/04 08:22:41;;;;;;;103.45;27.02;;;0.00;99.90;;;;;;5112955;27;20119;-72
2022/03/04 08:25:07;;;;;;;98.90;24.83;;;0.10;99.90;;;;;;5107866;27;20444;-72
2022/03/04 08:27:40;;;;;;;98.00;26.13;;;0.10;99.90;;;;;;5115388;27;20035;-73
2022/03/04 08:30:08;;;;;;;104.20;26.80;;;0.10;99.90;;;;;;5110521;27;20130;-72
2022/03/04 08:32:35;;;;;;;99.88;25.52;;;0.20;99.90;;;;;;5097732;28;20514;-72
2022/03/04 08:35:01;;;;;;;103.28;28.58;;;0.30;99.90;;;;;;5109180;27;20027;-71
2022/03/04 08:37:26;;;;;;;97.28;27.42;;;0.30;99.90;;;;;;5112745;27;20027;-73
2022/03/04 08:39:52;;;;;;;97.93;25.67;;;0.50;99.90;;;;;;5098031;27;20394;-72
2022/03/04 08:42:17;;;;;;;112.85;28.50;;;0.50;99.90;;;;;;5113314;27;20458;-73
2022/03/04 08:44:43;;;;;;;95.07;25.67;;;0.60;99.90;;;;;;5112051;27;20031;-71
2022/03/04 08:47:08;;;;;;;106.43;28.40;;;0.60;99.90;;;;;;5111208;27;20094;-72
2022/03/04 08:49:34;;;;;;;109.50;29.08;;;0.60;99.90;;;;;;5111130;27;20043;-72
2022/03/04 08:52:00;;;;;;;115.53;29.30;;;0.60;99.90;;;;;;5107814;27;20039;-72
2022/03/04 08:54:26;;;;;;;113.70;28.95;;;0.60;99.90;;;;;;5111168;27;20039;-72
2022/03/04 08:56:52;;;;;;;111.30;28.15;;;0.80;99.90;;;;;;5105331;27;20039;-71
2022/03/04 08:59:18;;;;;;;109.72;29.60;;;0.80;99.90;;;;;;5111949;27;20397;-71
2022/03/04 09:01:44;;;;;;;116.35;29.38;;;0.80;99.90;;;;;;5110026;27;20053;-71
2022/03/04 09:04:13;;;;;;;116.38;28.92;;;0.90;99.90;;;;;;5111123;27;20053;-71
2022/03/04 09:06:40;;;;;;;115.45;28.50;;;1.00;99.90;;;;;;5099154;27;20042;-71
2022/03/04 09:09:05;;;;;;;109.65;30.00;;;1.10;99.90;;;;;;5108609;27;20417;-72
2022/03/04 09:11:31;;;;;;;112.10;29.42;;;1.10;99.90;;;;;;5091387;27;20051;-72
2022/03/04 09:13:57;;;;;;;119.85;30.85;;;1.40;99.90;;;;;;5111598;27;20039;-71
2022/03/04 09:16:23;;;;;;;113.88;29.63;;;1.40;99.90;;;;;;5107415;27;20153;-72
2022/03/04 09:18:48;;;;;;;104.55;29.20;;;1.50;99.90;;;;;;5110371;27;20099;-71
2022/03/04 09:21:14;;;;;;;112.88;29.20;;;1.50;99.90;;;;;;5128044;27;20421;-72
2022/03/04 09:23:40;;;;;;;117.20;31.35;;;1.50;99.90;;;;;;5109901;27;20031;-71
2022/03/04 09:26:05;;;;;;;124.40;31.63;;;1.50;99.90;;;;;;5110532;27;20131;-71
2022/03/04 09:28:31;;;;;;;121.75;31.48;;;1.50;99.90;;;;;;5105957;27;20043;-72
2022/03/04 09:30:57;;;;;;;112.55;30.92;;;1.40;99.90;;;;;;5109840;27;20064;-72
2022/03/04 09:33:23;;;;;;;125.88;30.73;;;1.50;99.90;;;;;;5110401;27;20039;-72
2022/03/04 09:35:48;;;;;;;127.00;32.53;;;1.60;99.90;;;;;;5110583;27;20045;-72
2022/03/04 09:38:14;;;;;;;107.88;29.10;;;1.60;99.90;;;;;;5111769;27;20035;-72
2022/03/04 09:40:40;;;;;;;114.78;29.98;;;1.80;99.90;;;;;;5092996;27;20046;-73
2022/03/04 09:43:07;;;;;;;118.90;30.70;;;2.00;99.90;;;;;;5111914;27;20039;-71
2022/03/04 09:45:32;;;;;;;118.88;28.98;;;2.20;99.90;;;;;;5131423;27;20092;-70
2022/03/04 09:48:00;;;;;;;108.18;29.45;;;2.40;99.90;;;;;;5112281;27;20046;-70
2022/03/04 09:50:27;;;;;;;119.15;30.52;;;2.60;99.90;;;;;;5131356;27;20043;-70
2022/03/04 09:52:53;;;;;;;112.18;28.42;;;2.60;99.90;;;;;;5112569;28;20074;-69
2022/03/04 09:55:19;;;;;;;97.63;28.50;;;2.60;99.90;;;;;;5112219;27;20039;-70
2022/03/04 09:57:44;;;;;;;109.75;28.95;;;2.50;99.90;;;;;;5102198;27;20496;-71
2022/03/04 10:00:11;;;;;;;118.70;29.42;;;2.40;99.90;;;;;;5111280;28;20079;-69
2022/03/04 10:02:37;;;;;;;120.60;29.55;;;2.30;99.90;;;;;;5112683;28;20050;-70
2022/03/04 10:05:04;;;;;;;128.85;32.67;;;2.40;99.90;;;;;;5094334;28;20384;-72
2022/03/04 10:07:44;;;;;;;125.07;30.88;;;2.30;99.90;;;;;;5111194;28;20087;-70
2022/03/04 10:10:18;;;;;;;122.82;30.80;;;2.20;99.90;;;;;;5111190;28;20481;-72
2022/03/04 10:12:58;;;;;;;123.68;30.45;;;2.30;99.90;;;;;;5112416;28;20039;-69
2022/03/04 10:15:25;;;;;;;124.20;31.58;;;2.40;99.90;;;;;;5115385;27;20035;-69
2022/03/04 10:18:03;;;;;;;123.18;32.03;;;2.30;99.90;;;;;;5098718;27;20397;-69
2022/03/04 10:20:46;;;;;;;136.43;34.53;;;2.30;99.90;;;;;;5115611;27;20030;-70
2022/03/04 10:23:17;;;;;;;128.93;31.55;;;2.40;99.90;;;;;;5115146;27;20549;-69
2022/03/04 10:25:48;;;;;;;132.45;30.35;;;2.50;99.90;;;;;;5116290;27;20054;-70
2022/03/04 10:28:14;;;;;;;121.70;29.48;;;2.50;99.90;;;;;;5114982;27;20046;-69
2022/03/04 10:30:46;;;;;;;143.48;33.25;;;2.60;99.90;;;;;;5115439;27;20043;-70
2022/03/04 10:33:31;;;;;;;133.90;32.47;;;2.70;99.90;;;;;;5113954;27;20050;-68
2022/03/04 10:36:11;;;;;;;128.52;30.67;;;2.80;99.90;;;;;;5131592;27;20046;-70
2022/03/04 10:38:38;;;;;;;138.85;34.35;;;2.80;99.90;;;;;;5113140;27;20039;-69
2022/03/04 10:41:29;;;;;;;132.77;31.08;;;2.70;99.90;;;;;;5114132;27;20049;-67
2022/03/04 10:43:56;;;;;;;123.25;29.67;;;2.70;99.90;;;;;;5117293;27;20412;-68
2022/03/04 10:46:22;;;;;;;129.57;29.80;;;2.90;99.90;;;;;;5114466;27;20078;-69
2022/03/04 10:48:56;;;;;;;127.03;30.08;;;2.90;99.90;;;;;;5097267;27;20035;-69
2022/03/04 10:51:39;;;;;;;122.38;30.90;;;3.00;99.90;;;;;;5115636;27;20063;-69
2022/03/04 10:54:16;;;;;;;120.53;30.10;;;3.20;99.90;;;;;;5116827;27;20344;-69
2022/03/04 10:56:55;;;;;;;120.00;29.67;;;3.20;99.90;;;;;;5116837;27;20043;-70
2022/03/04 10:59:22;;;;;;;111.68;28.80;;;3.20;99.90;;;;;;5095761;28;20127;-69
2022/03/04 11:01:55;;;;;;;118.70;30.77;;;3.30;99.90;;;;;;5110819;27;20050;-67
2022/03/04 11:04:21;;;;;;;125.18;30.08;;;3.40;99.90;;;;;;5100713;27;20097;-69
2022/03/04 11:06:48;;;;;;;128.05;30.80;;;3.50;99.90;;;;;;5116367;27;20043;-70
2022/03/04 11:09:15;;;;;;;136.18;31.58;;;3.50;99.90;;;;;;5116036;27;20142;-69
2022/03/04 11:11:43;;;;;;;114.22;30.27;;;3.50;99.90;;;;;;5116080;27;20035;-70
2022/03/04 11:14:12;;;;;;;126.97;30.83;;;3.60;99.90;;;;;;5117252;27;20544;-69
2022/03/04 11:16:38;;;;;;;134.07;33.33;;;3.70;99.90;;;;;;5104008;28;20039;-68
2022/03/04 11:19:05;;;;;;;119.20;29.80;;;3.70;99.90;;;;;;5113906;27;20031;-69
2022/03/04 11:21:31;;;;;;;145.68;34.85;;;3.80;99.90;;;;;;5115181;27;20092;-69
2022/03/04 11:23:56;;;;;;;128.52;31.55;;;3.80;99.90;;;;;;5115560;27;20031;-70
2022/03/04 11:26:27;;;;;;;124.50;32.20;;;3.80;99.90;;;;;;5115013;27;20057;-69
2022/03/04 11:28:54;;;;;;;132.15;32.63;;;3.90;99.90;;;;;;5114564;27;20062;-68
2022/03/04 11:31:22;;;;;;;122.22;29.08;;;3.90;99.90;;;;;;5115388;27;20045;-68
2022/03/04 11:33:52;;;;;;;123.20;29.27;;;4.10;99.90;;;;;;5115958;27;20500;-69
2022/03/04 11:36:30;;;;;;;112.68;27.20;;;4.20;99.90;;;;;;5115292;27;20043;-68
2022/03/04 11:38:58;;;;;;;105.03;25.95;;;4.20;99.90;;;;;;5115178;27;20111;-69
2022/03/04 11:41:26;;;;;;;123.50;30.17;;;4.30;99.90;;;;;;5115429;27;20439;-67
2022/03/04 11:43:57;;;;;;;111.30;26.63;;;4.40;99.90;;;;;;5094255;28;20456;-67
2022/03/04 11:46:55;;;;;;;106.40;27.45;;;4.30;99.90;;;;;;5113371;27;20039;-70
2022/03/04 11:49:38;;;;;;;116.93;30.77;;;4.50;99.90;;;;;;5107126;27;20047;-69
2022/03/04 11:52:10;;;;;;;116.65;29.55;;;4.50;99.90;;;;;;5115385;27;20035;-69
2022/03/04 11:54:41;;;;;;;112.27;29.47;;;4.60;99.90;;;;;;5115647;27;20126;-68
2022/03/04 11:57:24;;;;;;;125.35;31.08;;;4.60;99.90;;;;;;5113686;27;20095;-67
2022/03/04 12:00:06;;;;;;;102.78;26.60;;;4.70;99.90;;;;;;5113409;27;20490;-68
2022/03/04 12:02:38;;;;;;;113.18;29.63;;;4.80;99.90;;;;;;5116526;27;20035;-67
2022/03/04 12:05:22;;;;;;;116.22;29.02;;;4.90;99.90;;;;;;5115029;27;20081;-67
2022/03/04 12:07:56;;;;;;;101.32;26.67;;;5.00;99.90;;;;;;5112754;27;20130;-68
2022/03/04 12:10:25;;;;;;;103.78;27.70;;;5.10;99.90;;;;;;5094580;28;20139;-68
2022/03/04 12:13:20;;;;;;;100.57;26.17;;;5.10;99.90;;;;;;5108814;27;20039;-69
2022/03/04 12:15:57;;;;;;;98.47;25.65;;;5.20;99.90;;;;;;5115675;27;20123;-66
2022/03/04 12:18:37;;;;;;;98.60;26.35;;;5.30;99.90;;;;;;5114724;27;20622;-67
2022/03/04 12:21:13;;;;;;;96.63;25.95;;;5.40;99.90;;;;;;5116044;27;20099;-67
2022/03/04 12:23:47;;;;;;;97.25;26.77;;;5.50;99.90;;;;;;5131805;27;20130;-66
2022/03/04 12:26:26;;;;;;;95.97;24.92;;;5.60;99.90;;;;;;5133479;27;20042;-68
2022/03/04 12:29:06;;;;;;;85.13;24.60;;;5.70;99.90;;;;;;5113728;27;20035;-66
2022/03/04 12:31:39;;;;;;;90.78;25.25;;;5.80;99.90;;;;;;5114839;27;20073;-68
2022/03/04 12:34:05;;;;;;;98.88;26.33;;;5.80;99.90;;;;;;5115368;27;20126;-69
2022/03/04 12:36:31;;;;;;;89.55;25.33;;;5.80;99.90;;;;;;5095986;28;20485;-66
2022/03/04 12:38:58;;;;;;;116.22;32.33;;;5.90;99.90;;;;;;5094990;28;20031;-66